TDCF/DCF METAR and TAF weather

Enter ICAO airport designator
Station Type Date Time Source
TDCF METAR 2020/07/05 20:00 UTC NOAA

TDCF 052000Z 17006KT 9999 SCT018 32/22 Q1012


Station Type Date Time Source
TDCF Decoded METAR 2020/07/05 20:00 UTC NOAA

Canefield Airport, Dominica (TDCF) 15-32N 061-24W 5M
Jul 05, 2020 - 04:00 PM EDT / 2020.07.05 2000 UTC
Wind: from the S (170 degrees) at 7 MPH (6 KT):0
Visibility: greater than 7 mile(s):0
Sky conditions: partly cloudy
Temperature: 89 F (32 C)
Heat index: 95.0 F (35.0 C):1
Dew Point: 71 F (22 C)
Relative Humidity: 55%
Pressure (altimeter): 29.88 in. Hg (1012 hPa)
ob: TDCF 052000Z 17006KT 9999 SCT018 32/22 Q1012
cycle: 20

Station Type Date Time Source
TDCF TAF 2012/05/01 18:15 UTC NOAA

TAF TDCF 011600Z 0118/0218 110010KT 9999 SCT018 BKN030
TEMPO 0118/0206 6000 SHRA BKN014 BKN070

Example: see airport list